createdAt,value
2023-01-09T00:01:47.507Z,98424.09
2023-01-09T00:04:36.037Z,98422.19
2023-01-09T00:07:24.516Z,98411.19
2023-01-09T00:10:15.397Z,98395.03
2023-01-09T00:13:03.942Z,98396.72
2023-01-09T00:15:52.460Z,98400.91
2023-01-09T00:18:42.322Z,98393.72
2023-01-09T00:21:30.802Z,98395.44
2023-01-09T00:24:20.427Z,98377.13
2023-01-09T00:27:08.924Z,98378.63
2023-01-09T00:29:57.410Z,98372.81
2023-01-09T00:32:46.292Z,98375.44
2023-01-09T00:35:36.362Z,98381.25
2023-01-09T00:38:24.866Z,98371.03
2023-01-09T00:41:16.190Z,98338.28
2023-01-09T00:44:08.693Z,98370.41
2023-01-09T00:47:00.302Z,98333.75
2023-01-09T00:49:49.061Z,98363.56
2023-01-09T00:52:40.898Z,98364.63
2023-01-09T00:55:29.382Z,98360.66
2023-01-09T00:58:18.240Z,98360.00
2023-01-09T01:01:07.287Z,98360.91
2023-01-09T01:03:56.136Z,98369.19
2023-01-09T01:07:13.702Z,98366.25
2023-01-09T01:10:03.708Z,98360.66
2023-01-09T01:12:53.121Z,98356.81
2023-01-09T01:15:42.896Z,98368.91
2023-01-09T01:18:31.335Z,98366.25
2023-01-09T01:21:19.968Z,98379.84
2023-01-09T01:24:08.429Z,98369.81
2023-01-09T01:26:58.272Z,98369.31
2023-01-09T01:29:46.843Z,98361.66
2023-01-09T01:32:35.333Z,98372.59
2023-01-09T01:35:24.288Z,98381.91
2023-01-09T01:38:12.777Z,98387.50
2023-01-09T01:41:02.249Z,98395.75
2023-01-09T01:43:54.264Z,98398.41
2023-01-09T01:46:42.709Z,98349.56
2023-01-09T01:49:31.371Z,98394.13
2023-01-09T01:52:20.989Z,98390.75
2023-01-09T01:55:10.992Z,98395.66
2023-01-09T01:58:02.858Z,98392.16
2023-01-09T02:00:52.955Z,98394.34
2023-01-09T02:03:42.845Z,98392.94
2023-01-09T02:06:31.783Z,98370.06
2023-01-09T02:09:22.798Z,98382.81
2023-01-09T02:12:18.928Z,98373.84
2023-01-09T02:15:09.819Z,98366.50
2023-01-09T02:18:20.938Z,98368.13
2023-01-09T02:21:15.698Z,98372.81
2023-01-09T02:24:21.305Z,98377.47
2023-01-09T02:27:28.400Z,98373.41
2023-01-09T02:30:38.747Z,98405.50
2023-01-09T02:33:39.441Z,98393.06
2023-01-09T02:36:32.720Z,98400.38
2023-01-09T02:39:25.625Z,98329.09
2023-01-09T02:42:17.239Z,98402.25
2023-01-09T02:45:06.463Z,98402.06
2023-01-09T02:47:56.298Z,98414.56
2023-01-09T02:50:49.544Z,98411.06
2023-01-09T02:53:50.419Z,98411.88
2023-01-09T02:56:53.912Z,98414.81
2023-01-09T02:59:53.906Z,98437.00
2023-01-09T03:02:47.173Z,98440.19
2023-01-09T03:05:42.033Z,98469.50
2023-01-09T03:08:36.193Z,98478.25
2023-01-09T03:11:25.902Z,98498.09
2023-01-09T03:14:17.369Z,98488.19
2023-01-09T03:17:09.131Z,98509.53
2023-01-09T03:19:58.440Z,98505.44
2023-01-09T03:22:54.898Z,98515.59
2023-01-09T03:25:43.364Z,98518.81
2023-01-09T03:28:31.861Z,98531.97
2023-01-09T03:31:20.380Z,98545.91
2023-01-09T03:34:08.981Z,98547.75
2023-01-09T03:36:57.452Z,98551.75
2023-01-09T03:39:47.309Z,98569.44
2023-01-09T03:42:35.791Z,98569.94
2023-01-09T03:45:24.217Z,98578.91
2023-01-09T03:48:12.655Z,98581.22
2023-01-09T03:51:01.145Z,98572.91
2023-01-09T03:53:49.617Z,98571.41
2023-01-09T03:56:39.422Z,98597.59
2023-01-09T03:59:27.927Z,98614.84
2023-01-09T04:02:16.535Z,98617.22
2023-01-09T04:05:05.593Z,98627.81
2023-01-09T04:07:54.017Z,98628.50
2023-01-09T04:10:45.330Z,98622.06
2023-01-09T04:13:35.144Z,98637.91
2023-01-09T04:16:23.598Z,98626.09
2023-01-09T04:19:12.065Z,98636.31
2023-01-09T04:22:00.564Z,98653.16
2023-01-09T04:24:49.032Z,98653.28
2023-01-09T04:27:37.667Z,98656.41
2023-01-09T04:30:27.458Z,98631.84
2023-01-09T04:33:15.882Z,98671.50
2023-01-09T04:36:04.706Z,98685.19
2023-01-09T04:38:53.268Z,98679.94
2023-01-09T04:41:50.468Z,98686.47
2023-01-09T04:44:38.981Z,98701.16
2023-01-09T04:47:30.986Z,98697.25
2023-01-09T04:50:19.582Z,98709.91
2023-01-09T04:53:08.030Z,98714.28
2023-01-09T04:55:56.483Z,98718.34
2023-01-09T04:58:44.924Z,98724.75
2023-01-09T05:01:33.516Z,98712.50
2023-01-09T05:04:23.381Z,98734.97
2023-01-09T05:07:11.844Z,98733.75
2023-01-09T05:10:00.300Z,98722.63
2023-01-09T05:12:48.733Z,98731.97
2023-01-09T05:15:37.301Z,98731.81
2023-01-09T05:18:25.789Z,98731.97
2023-01-09T05:21:15.641Z,98750.00
2023-01-09T05:24:04.121Z,98744.16
2023-01-09T05:26:52.564Z,98765.78
2023-01-09T05:29:41.027Z,98753.75
2023-01-09T05:32:29.499Z,98770.34
2023-01-09T05:35:18.053Z,98789.41
2023-01-09T05:38:08.267Z,98755.50
2023-01-09T05:40:56.724Z,98784.16
2023-01-09T05:43:45.242Z,98778.84
2023-01-09T05:46:33.774Z,98785.06
2023-01-09T05:49:22.243Z,98789.63
2023-01-09T05:52:10.681Z,98782.00
2023-01-09T05:55:00.519Z,98803.47
2023-01-09T05:57:49.137Z,98800.63
2023-01-09T06:00:37.632Z,98805.53
2023-01-09T06:03:26.080Z,98810.44
2023-01-09T06:06:14.619Z,98820.88
2023-01-09T06:09:03.629Z,98830.06
2023-01-09T06:11:54.688Z,98799.81
2023-01-09T06:14:43.111Z,98811.13
2023-01-09T06:17:31.599Z,98817.19
2023-01-09T06:20:20.224Z,98826.84
2023-01-09T06:23:08.724Z,98814.91
2023-01-09T06:25:57.169Z,98817.91
2023-01-09T06:28:46.967Z,98801.66
2023-01-09T06:31:35.567Z,98833.97
2023-01-09T06:34:24.090Z,98833.97
2023-01-09T06:37:12.626Z,98810.28
2023-01-09T06:40:01.068Z,98827.06
2023-01-09T06:42:50.280Z,98833.97
2023-01-09T06:45:40.096Z,98831.03
2023-01-09T06:48:28.581Z,98847.63
2023-01-09T06:51:17.092Z,98854.13
2023-01-09T06:54:05.653Z,98852.94
2023-01-09T06:56:54.099Z,98838.81
2023-01-09T06:59:42.716Z,98848.03
2023-01-09T07:02:32.469Z,98859.97
2023-01-09T07:05:20.935Z,98807.44
2023-01-09T07:08:09.784Z,98829.63
2023-01-09T07:10:59.094Z,98812.63
2023-01-09T07:13:47.552Z,98858.88
2023-01-09T07:16:36.003Z,98852.91
2023-01-09T07:19:26.013Z,98845.00
2023-01-09T07:22:14.578Z,98842.88
2023-01-09T07:25:03.039Z,98846.13
2023-01-09T07:27:51.569Z,98846.09
2023-01-09T07:30:40.105Z,98850.38
2023-01-09T07:33:28.621Z,98856.53
2023-01-09T07:36:18.451Z,98853.84
2023-01-09T07:39:06.915Z,98855.06
2023-01-09T07:41:55.414Z,98860.63
2023-01-09T07:44:43.861Z,98853.66
2023-01-09T07:47:32.350Z,98853.00
2023-01-09T07:50:20.794Z,98848.09
2023-01-09T07:53:10.618Z,98860.28
2023-01-09T07:55:59.077Z,98873.28
2023-01-09T07:58:47.586Z,98880.69
2023-01-09T08:01:36.251Z,98871.19
2023-01-09T08:04:25.088Z,98883.28
2023-01-09T08:07:13.650Z,98878.47
2023-01-09T08:10:03.470Z,98875.97
2023-01-09T08:12:52.141Z,98875.22
2023-01-09T08:15:40.644Z,98879.25
2023-01-09T08:18:29.170Z,98872.63
2023-01-09T08:21:17.670Z,98873.00
2023-01-09T08:24:06.572Z,98845.41
2023-01-09T08:26:56.391Z,98862.97
2023-01-09T08:29:44.851Z,98863.84
2023-01-09T08:32:33.304Z,98864.91
2023-01-09T08:35:22.164Z,98851.03
2023-01-09T08:38:11.050Z,98864.41
2023-01-09T08:40:59.516Z,98864.31
2023-01-09T08:44:06.986Z,98864.66
2023-01-09T08:47:07.256Z,98856.50
2023-01-09T08:49:57.799Z,98864.72
2023-01-09T08:52:46.267Z,98868.97
2023-01-09T08:55:34.770Z,98861.59
2023-01-09T08:58:23.263Z,98866.72
2023-01-09T09:01:13.148Z,98870.75
2023-01-09T09:04:01.604Z,98878.09
2023-01-09T09:06:50.121Z,98875.81
2023-01-09T09:09:38.556Z,98880.91
2023-01-09T09:12:27.059Z,98881.78
2023-01-09T09:15:23.430Z,98886.75
2023-01-09T09:18:13.315Z,98876.41
2023-01-09T09:21:01.821Z,98869.47
2023-01-09T09:23:50.246Z,98884.88
2023-01-09T09:26:38.724Z,98891.22
2023-01-09T09:29:27.250Z,98888.75
2023-01-09T09:32:15.928Z,98886.97
2023-01-09T09:35:06.488Z,98862.38
2023-01-09T09:37:56.290Z,98902.31
2023-01-09T09:40:59.325Z,98887.69
2023-01-09T09:44:25.187Z,98917.06
2023-01-09T09:47:24.517Z,98905.84
2023-01-09T09:50:27.070Z,98898.72
2023-01-09T09:53:20.072Z,98871.47
2023-01-09T09:56:11.638Z,98903.09
2023-01-09T09:59:03.656Z,98905.16
2023-01-09T10:01:56.116Z,98911.59
2023-01-09T10:04:50.069Z,98897.75
2023-01-09T10:07:44.563Z,98901.81
2023-01-09T10:10:37.234Z,98869.38
2023-01-09T10:13:43.778Z,98904.03
2023-01-09T10:16:43.021Z,98906.59
2023-01-09T10:19:47.827Z,98907.81
2023-01-09T10:22:45.679Z,98910.22
2023-01-09T10:25:42.745Z,98904.53
2023-01-09T10:28:49.890Z,98907.66
2023-01-09T10:31:46.311Z,98905.34
2023-01-09T10:34:46.654Z,98906.88
2023-01-09T10:37:38.297Z,98894.41
2023-01-09T10:40:31.405Z,98904.97
2023-01-09T10:43:28.948Z,98894.38
2023-01-09T10:46:20.359Z,98899.03
2023-01-09T10:49:12.297Z,98898.91
2023-01-09T10:52:06.729Z,98887.25
2023-01-09T10:54:57.240Z,98896.50
2023-01-09T10:57:49.889Z,98864.31
2023-01-09T11:00:40.058Z,98864.09
2023-01-09T11:03:29.293Z,98899.53
2023-01-09T11:06:22.227Z,98648.38
2023-01-09T11:09:10.706Z,98878.22
2023-01-09T11:11:59.128Z,98885.13
2023-01-09T11:14:48.968Z,98884.47
2023-01-09T11:17:37.445Z,98887.03
2023-01-09T11:20:28.707Z,98887.75
2023-01-09T11:23:32.307Z,98873.41
2023-01-09T11:26:25.677Z,98907.78
2023-01-09T11:29:15.723Z,98912.53
2023-01-09T11:32:05.679Z,98917.00
2023-01-09T11:34:54.177Z,98916.81
2023-01-09T11:37:42.885Z,98921.03
2023-01-09T11:40:36.997Z,98918.41
2023-01-09T11:43:32.670Z,98913.91
2023-01-09T11:46:35.695Z,98917.53
2023-01-09T11:49:28.190Z,98909.44
2023-01-09T11:52:19.555Z,98905.59
2023-01-09T11:55:13.120Z,98882.13
2023-01-09T11:58:01.598Z,98904.97
2023-01-09T12:00:56.230Z,98896.22
2023-01-09T12:04:09.507Z,98907.50
2023-01-09T12:07:24.437Z,98897.63
2023-01-09T12:10:26.998Z,98892.84
2023-01-09T12:13:26.259Z,98913.41
2023-01-09T12:16:20.636Z,98900.94
2023-01-09T12:19:21.437Z,98910.00
2023-01-09T12:22:17.599Z,98907.13
2023-01-09T12:25:23.470Z,98908.00
2023-01-09T12:28:39.563Z,98902.72
2023-01-09T12:31:39.286Z,98901.97
2023-01-09T12:34:41.769Z,98904.16
2023-01-09T12:37:46.627Z,98882.88
2023-01-09T12:40:47.584Z,98906.84
2023-01-09T12:43:43.514Z,98909.50
2023-01-09T12:46:37.270Z,98914.25
2023-01-09T12:49:30.139Z,98910.06
2023-01-09T12:52:23.273Z,98909.66
2023-01-09T12:55:18.364Z,98913.63
2023-01-09T12:58:13.911Z,98909.44
2023-01-09T13:01:07.243Z,98931.13
2023-01-09T13:04:10.602Z,98938.03
2023-01-09T13:07:02.589Z,98932.91
2023-01-09T13:09:54.428Z,98948.50
2023-01-09T13:12:47.034Z,98944.78
2023-01-09T13:15:38.937Z,98881.09
2023-01-09T13:18:32.330Z,98945.28
2023-01-09T13:21:20.982Z,98923.00
2023-01-09T13:24:16.579Z,98931.28
2023-01-09T13:27:07.582Z,98944.09
2023-01-09T13:30:04.909Z,98940.16
2023-01-09T13:33:00.008Z,98942.03
2023-01-09T13:35:50.934Z,98936.72
2023-01-09T13:38:39.666Z,98939.13
2023-01-09T13:41:46.604Z,98938.91
2023-01-09T13:44:35.155Z,98924.09
2023-01-09T13:47:27.858Z,98953.03
2023-01-09T13:50:25.051Z,98954.88
2023-01-09T13:53:46.899Z,98971.34
2023-01-09T13:57:17.907Z,98973.81
2023-01-09T14:00:43.868Z,98966.41
2023-01-09T14:03:38.065Z,98971.97
2023-01-09T14:06:28.058Z,98981.25
2023-01-09T14:09:20.309Z,98987.28
2023-01-09T14:12:08.896Z,98977.00
2023-01-09T14:15:02.007Z,98985.13
2023-01-09T14:17:59.893Z,98912.00
2023-01-09T14:20:55.900Z,98990.69
2023-01-09T14:23:53.341Z,99019.69
2023-01-09T14:26:45.549Z,99016.41
2023-01-09T14:29:43.424Z,99043.44
2023-01-09T14:32:45.169Z,99051.94
2023-01-09T14:35:42.166Z,99069.47
2023-01-09T14:38:33.609Z,99062.97
2023-01-09T14:41:39.666Z,99008.50
2023-01-09T14:44:30.621Z,99079.84
2023-01-09T14:47:22.505Z,99065.31
2023-01-09T14:50:18.466Z,99060.38
2023-01-09T14:53:08.970Z,99068.56
2023-01-09T14:56:00.305Z,99062.19
2023-01-09T14:58:50.761Z,99077.19
2023-01-09T15:01:41.341Z,99080.25
2023-01-09T15:04:34.811Z,99103.03
2023-01-09T15:07:25.902Z,99099.50
2023-01-09T15:10:17.847Z,99105.66
2023-01-09T15:13:08.995Z,99108.34
2023-01-09T15:15:57.652Z,99097.69
2023-01-09T15:18:49.129Z,99115.91
2023-01-09T15:21:37.655Z,99118.16
2023-01-09T15:24:28.684Z,99131.88
2023-01-09T15:27:19.146Z,99127.41
2023-01-09T15:30:19.045Z,99140.72
2023-01-09T15:33:12.463Z,99138.25
2023-01-09T15:36:02.562Z,99141.94
2023-01-09T15:38:51.830Z,99141.31
2023-01-09T15:41:57.754Z,99138.44
2023-01-09T15:44:48.362Z,99140.25
2023-01-09T15:47:38.219Z,99146.22
2023-01-09T15:50:28.707Z,99156.66
2023-01-09T15:53:18.938Z,99145.56
2023-01-09T15:56:16.624Z,99152.97
2023-01-09T15:59:23.564Z,99158.31
2023-01-09T16:02:31.990Z,99155.66
2023-01-09T16:05:22.102Z,99155.66
2023-01-09T16:08:21.505Z,99170.22
2023-01-09T16:11:11.204Z,99171.44
2023-01-09T16:14:11.016Z,99178.81
2023-01-09T16:17:01.170Z,99189.31
2023-01-09T16:19:51.485Z,99184.59
2023-01-09T16:22:54.161Z,99189.09
2023-01-09T16:25:42.655Z,99193.63
2023-01-09T16:28:31.281Z,99201.03
2023-01-09T16:31:23.746Z,99205.91
2023-01-09T16:34:13.547Z,99209.63
2023-01-09T16:37:03.349Z,99206.16
2023-01-09T16:40:31.993Z,99217.81
2023-01-09T16:43:20.909Z,99219.69
2023-01-09T16:46:09.665Z,99200.38
2023-01-09T16:48:58.226Z,99217.78
2023-01-09T16:51:46.882Z,99225.63
2023-01-09T16:54:35.330Z,99205.28
2023-01-09T16:57:23.894Z,99227.44
2023-01-09T17:00:18.142Z,99241.59
2023-01-09T17:03:06.751Z,99243.47
2023-01-09T17:05:57.308Z,99245.91
2023-01-09T17:08:46.942Z,99245.28
2023-01-09T17:11:35.415Z,99257.59
2023-01-09T17:14:24.526Z,99255.13
2023-01-09T17:17:14.412Z,99257.38
2023-01-09T17:20:07.395Z,99267.59
2023-01-09T17:22:55.982Z,99282.97
2023-01-09T17:26:02.085Z,99275.63
2023-01-09T17:28:51.941Z,99290.97
2023-01-09T17:31:40.513Z,99276.13
2023-01-09T17:34:30.344Z,99301.81
2023-01-09T17:37:20.175Z,99302.03
2023-01-09T17:40:16.309Z,99311.00
2023-01-09T17:43:04.855Z,99304.19
2023-01-09T17:45:53.376Z,99321.81
2023-01-09T17:48:41.849Z,99333.88
2023-01-09T17:51:31.821Z,99338.75
2023-01-09T17:54:21.448Z,99341.81
2023-01-09T17:57:12.216Z,99341.53
2023-01-09T18:00:00.771Z,99355.69
2023-01-09T18:02:49.587Z,99368.19
2023-01-09T18:05:38.215Z,99369.22
2023-01-09T18:08:28.211Z,99359.78
2023-01-09T18:11:18.229Z,99376.81
2023-01-09T18:14:06.739Z,99384.22
2023-01-09T18:16:55.403Z,99385.06
2023-01-09T18:19:44.292Z,99384.44
2023-01-09T18:22:33.895Z,99380.75
2023-01-09T18:25:23.688Z,99389.81
2023-01-09T18:28:15.205Z,99377.59
2023-01-09T18:31:03.911Z,99413.91
2023-01-09T18:33:53.829Z,99418.66
2023-01-09T18:36:42.427Z,99413.78
2023-01-09T18:39:31.107Z,99430.75
2023-01-09T18:42:21.035Z,99418.84
2023-01-09T18:45:10.763Z,99433.63
2023-01-09T18:47:59.415Z,99436.75
2023-01-09T18:50:48.056Z,99443.69
2023-01-09T18:53:36.538Z,99441.78
2023-01-09T18:56:25.550Z,99461.16
2023-01-09T18:59:15.545Z,99457.84
2023-01-09T19:02:04.133Z,99398.13
2023-01-09T19:04:53.311Z,99477.31
2023-01-09T19:07:41.834Z,99474.22
2023-01-09T19:10:30.421Z,99471.34
2023-01-09T19:13:19.000Z,99465.97
2023-01-09T19:16:09.883Z,99497.06
2023-01-09T19:19:01.941Z,99477.38
2023-01-09T19:21:50.454Z,99503.50
2023-01-09T19:24:38.976Z,99511.59
2023-01-09T19:27:29.611Z,99517.78
2023-01-09T19:30:18.902Z,99509.31
2023-01-09T19:33:09.083Z,99523.50
2023-01-09T19:35:57.634Z,99528.44
2023-01-09T19:38:46.203Z,99524.53
2023-01-09T19:41:34.717Z,99527.22
2023-01-09T19:44:23.289Z,99527.41
2023-01-09T19:47:14.025Z,99514.47
2023-01-09T19:50:05.225Z,99505.34
2023-01-09T19:52:53.917Z,99524.91
2023-01-09T19:55:42.725Z,99538.44
2023-01-09T19:58:31.179Z,99537.00
2023-01-09T20:01:22.153Z,99537.19
2023-01-09T20:04:14.961Z,99551.97
2023-01-09T20:07:06.014Z,99555.66
2023-01-09T20:09:54.541Z,99543.47
2023-01-09T20:12:45.416Z,99557.75
2023-01-09T20:15:34.003Z,99555.13
2023-01-09T20:18:22.474Z,99568.97
2023-01-09T20:21:11.315Z,99569.78
2023-01-09T20:24:02.243Z,99567.25
2023-01-09T20:26:51.485Z,99565.44
2023-01-09T20:29:39.964Z,99568.69
2023-01-09T20:32:29.933Z,99562.50
2023-01-09T20:35:18.437Z,99521.47
2023-01-09T20:38:08.987Z,99564.13
2023-01-09T20:40:58.899Z,99562.50
2023-01-09T20:43:47.371Z,99577.84
2023-01-09T20:46:37.949Z,99565.72
2023-01-09T20:49:26.444Z,99579.66
2023-01-09T20:52:15.048Z,99575.38
2023-01-09T20:55:04.677Z,99560.78
2023-01-09T20:57:54.638Z,99588.03
2023-01-09T21:00:43.170Z,99599.53
2023-01-09T21:03:31.777Z,99605.84
2023-01-09T21:06:21.795Z,99601.84
2023-01-09T21:09:10.291Z,99621.34
2023-01-09T21:11:58.884Z,99614.69
2023-01-09T21:14:48.732Z,99625.59
2023-01-09T21:17:38.150Z,99627.50
2023-01-09T21:20:26.667Z,99633.16
2023-01-09T21:23:15.185Z,99642.50
2023-01-09T21:26:09.217Z,99653.00
2023-01-09T21:28:58.656Z,99648.00
2023-01-09T21:31:48.576Z,99647.34
2023-01-09T21:34:37.237Z,99658.50
2023-01-09T21:37:25.767Z,99667.72
2023-01-09T21:40:16.678Z,99658.84
2023-01-09T21:43:22.701Z,99666.59
2023-01-09T21:46:31.841Z,99673.97
2023-01-09T21:49:23.136Z,99571.22
2023-01-09T21:52:12.798Z,99694.44
2023-01-09T21:55:01.249Z,99701.38
2023-01-09T21:57:49.761Z,99714.00
2023-01-09T22:00:39.049Z,99700.13
2023-01-09T22:03:28.020Z,99696.19
2023-01-09T22:06:17.881Z,99718.50
2023-01-09T22:09:06.320Z,99725.22
2023-01-09T22:11:54.920Z,99738.06
2023-01-09T22:14:43.547Z,99724.13
2023-01-09T22:17:32.185Z,99712.16
2023-01-09T22:20:20.740Z,99748.03
2023-01-09T22:23:10.664Z,99751.72
2023-01-09T22:26:00.576Z,99760.69
2023-01-09T22:28:49.538Z,99763.09
2023-01-09T22:31:39.848Z,99765.31
2023-01-09T22:34:29.087Z,99788.91
2023-01-09T22:37:17.606Z,99795.88
2023-01-09T22:40:08.905Z,99798.81
2023-01-09T22:42:57.440Z,99795.06
2023-01-09T22:45:45.973Z,99799.94
2023-01-09T22:48:34.742Z,99814.72
2023-01-09T22:51:26.106Z,99809.19
2023-01-09T22:54:14.662Z,99793.41
2023-01-09T22:57:04.609Z,99804.53
2023-01-09T22:59:53.137Z,99801.13
2023-01-09T23:02:41.693Z,99816.91
2023-01-09T23:05:30.226Z,99703.78
2023-01-09T23:08:18.684Z,99830.50
2023-01-09T23:11:09.241Z,99826.38
2023-01-09T23:13:59.088Z,99823.63
2023-01-09T23:16:47.582Z,99791.22
2023-01-09T23:19:36.268Z,99819.47
2023-01-09T23:22:25.887Z,99804.25
2023-01-09T23:25:15.643Z,99831.16
2023-01-09T23:28:04.112Z,99844.75
2023-01-09T23:30:54.266Z,99847.78
2023-01-09T23:33:42.738Z,99854.94
2023-01-09T23:36:31.278Z,99858.09
2023-01-09T23:39:19.754Z,99857.06
2023-01-09T23:42:25.824Z,99873.97
2023-01-09T23:45:14.256Z,99873.97
2023-01-09T23:48:04.142Z,99882.81
2023-01-09T23:50:54.404Z,99887.94
2023-01-09T23:53:42.851Z,99876.09
2023-01-09T23:56:33.828Z,99885.91
2023-01-09T23:59:22.269Z,99881.31
